Time;durP1;ratioP1;P1;durP2;ratioP2;P2;SDS_P1;SDS_P2;PMS_P1;PMS_P2;Temp;Humidity;BMP_temperature;BMP_pressure;BME280_temperature;BME280_humidity;BME280_pressure;Samples;Min_cycle;Max_cycle;Signal;HPM_P1;HPM_P2
2022/03/22 00:00:36;;;;;;;;;;;12.10;63.00;;;;;;5088990;28;19999;-74
2022/03/22 00:03:02;;;;;;;;;;;12.20;62.80;;;;;;5088945;28;19989;-75
2022/03/22 00:05:27;;;;;;;;;;;12.20;63.60;;;;;;5088954;28;19920;-75
2022/03/22 00:07:53;;;;;;;;;;;12.20;63.90;;;;;;5089075;28;20386;-74
2022/03/22 00:10:19;;;;;;;;;;;12.20;63.60;;;;;;5089083;28;19966;-75
2022/03/22 00:12:44;;;;;;;;;;;12.20;63.60;;;;;;5088855;28;19908;-75
2022/03/22 00:15:11;;;;;;;;;;;12.30;63.70;;;;;;5088885;28;20335;-75
2022/03/22 00:17:37;;;;;;;;;;;12.20;63.90;;;;;;5088924;28;20367;-75
2022/03/22 00:20:10;;;;;;;;;;;12.30;63.80;;;;;;5089022;28;20026;-75
2022/03/22 00:22:36;;;;;;;;;;;12.30;63.90;;;;;;5087504;28;19945;-75
2022/03/22 00:25:02;;;;;;;;;;;12.20;64.00;;;;;;5087039;28;19908;-75
2022/03/22 00:27:28;;;;;;;;;;;12.20;63.90;;;;;;5088709;28;20003;-74
2022/03/22 00:29:53;;;;;;;;;;;12.20;64.10;;;;;;5088658;28;20006;-75
2022/03/22 00:32:19;;;;;;;;;;;12.20;64.20;;;;;;5087268;28;20363;-75
2022/03/22 00:34:44;;;;;;;;;;;12.20;64.30;;;;;;5088634;28;19920;-75
2022/03/22 00:37:17;;;;;;;;;;;12.20;64.40;;;;;;5088472;28;19931;-75
2022/03/22 00:39:44;;;;;;;;;;;12.20;64.50;;;;;;5087963;28;20392;-75
2022/03/22 00:42:14;;;;;;;;;;;12.20;64.70;;;;;;5088294;28;19968;-75
2022/03/22 00:44:39;;;;;;;;;;;12.10;64.50;;;;;;5086980;28;20412;-75
2022/03/22 00:47:06;;;;;;;;;;;12.10;64.70;;;;;;5088357;28;19913;-75
2022/03/22 00:49:33;;;;;;;;;;;12.10;64.70;;;;;;5087061;28;20377;-75
2022/03/22 00:52:01;;;;;;;;;;;12.10;64.50;;;;;;5088279;28;19919;-75
2022/03/22 00:54:28;;;;;;;;;;;12.10;64.40;;;;;;5088246;28;19944;-75
2022/03/22 00:56:54;;;;;;;;;;;12.00;64.20;;;;;;5088214;28;19908;-74
2022/03/22 01:02:04;;;;;;;;;;;12.00;64.40;;;;;;5087694;28;19950;-75
2022/03/22 01:04:29;;;;;;;;;;;12.00;64.20;;;;;;5088189;28;19959;-75
2022/03/22 01:06:55;;;;;;;;;;;12.00;64.50;;;;;;5088094;28;20272;-75
2022/03/22 01:09:20;;;;;;;;;;;11.90;64.70;;;;;;5086830;28;20281;-75
2022/03/22 01:11:47;;;;;;;;;;;12.00;65.00;;;;;;5087150;28;19933;-75
2022/03/22 01:14:12;;;;;;;;;;;12.00;64.90;;;;;;5088286;28;19919;-74
2022/03/22 01:16:39;;;;;;;;;;;12.00;64.60;;;;;;5088034;28;19909;-75
2022/03/22 01:19:06;;;;;;;;;;;12.10;65.00;;;;;;5070271;28;20283;-75
2022/03/22 01:21:31;;;;;;;;;;;12.10;65.00;;;;;;5087998;28;20433;-75
2022/03/22 01:23:58;;;;;;;;;;;12.10;64.90;;;;;;5088003;28;20054;-74
2022/03/22 01:26:24;;;;;;;;;;;12.20;64.80;;;;;;5088240;28;19913;-75
2022/03/22 01:28:50;;;;;;;;;;;12.20;64.60;;;;;;5088114;28;19912;-75
2022/03/22 01:31:16;;;;;;;;;;;12.20;64.60;;;;;;5087955;28;19914;-74
2022/03/22 01:33:42;;;;;;;;;;;12.20;64.50;;;;;;5087881;28;20012;-75
2022/03/22 01:36:08;;;;;;;;;;;12.20;64.70;;;;;;5087889;28;19923;-74
2022/03/22 01:38:33;;;;;;;;;;;12.20;64.60;;;;;;5087478;28;19931;-75
2022/03/22 01:40:59;;;;;;;;;;;12.20;64.60;;;;;;5087851;28;19924;-75
2022/03/22 01:43:24;;;;;;;;;;;12.10;65.10;;;;;;5087837;28;19916;-75
2022/03/22 01:45:50;;;;;;;;;;;12.20;64.60;;;;;;5087679;28;19915;-75
2022/03/22 01:48:15;;;;;;;;;;;12.20;64.60;;;;;;5087783;28;20347;-67
2022/03/22 01:50:42;;;;;;;;;;;12.30;64.70;;;;;;5087709;28;19920;-75
2022/03/22 01:53:08;;;;;;;;;;;12.30;64.50;;;;;;5086535;28;19954;-75
2022/03/22 01:55:34;;;;;;;;;;;12.40;64.40;;;;;;5086399;28;19955;-75
2022/03/22 01:57:59;;;;;;;;;;;12.40;64.40;;;;;;5087654;28;19959;-75
2022/03/22 02:00:26;;;;;;;;;;;12.40;64.40;;;;;;5087717;28;19983;-75
2022/03/22 02:08:19;;;;;;;;;;;12.50;64.30;;;;;;5087864;28;19914;-75
2022/03/22 02:10:45;;;;;;;;;;;12.60;64.30;;;;;;5087560;28;19939;-75
2022/03/22 02:13:11;;;;;;;;;;;12.60;64.20;;;;;;5088403;28;19965;-74
2022/03/22 02:15:37;;;;;;;;;;;12.70;64.30;;;;;;5091174;28;19916;-75
2022/03/22 02:18:03;;;;;;;;;;;12.70;64.40;;;;;;5091225;28;19912;-75
2022/03/22 02:20:28;;;;;;;;;;;12.70;64.40;;;;;;5091056;28;20359;-75
2022/03/22 02:22:57;;;;;;;;;;;12.70;64.40;;;;;;5089785;28;19908;-75
2022/03/22 02:25:23;;;;;;;;;;;12.70;64.40;;;;;;5091025;28;20339;-75
2022/03/22 02:27:52;;;;;;;;;;;12.70;64.50;;;;;;5091269;28;19940;-75
2022/03/22 02:30:17;;;;;;;;;;;12.80;64.70;;;;;;5090996;28;20401;-75
2022/03/22 02:32:53;;;;;;;;;;;12.80;64.50;;;;;;5090751;28;19947;-75
2022/03/22 02:35:19;;;;;;;;;;;12.90;64.50;;;;;;5090798;28;19909;-75
2022/03/22 02:37:45;;;;;;;;;;;12.90;64.40;;;;;;5090817;28;20427;-75
2022/03/22 02:40:13;;;;;;;;;;;12.80;64.30;;;;;;5090612;28;20294;-74
2022/03/22 02:42:42;;;;;;;;;;;12.80;64.30;;;;;;5089466;28;19920;-75
2022/03/22 02:45:09;;;;;;;;;;;12.70;64.30;;;;;;5090464;28;19964;-75
2022/03/22 02:47:34;;;;;;;;;;;12.60;64.30;;;;;;5090632;28;19949;-75
2022/03/22 02:50:00;;;;;;;;;;;12.50;64.30;;;;;;5090784;28;20451;-75
2022/03/22 02:52:26;;;;;;;;;;;12.50;64.30;;;;;;5090607;28;19908;-75
2022/03/22 02:54:51;;;;;;;;;;;12.40;64.20;;;;;;5089001;28;19916;-75
2022/03/22 02:57:17;;;;;;;;;;;12.30;64.30;;;;;;5090515;28;19924;-75
2022/03/22 02:59:43;;;;;;;;;;;12.30;64.40;;;;;;5088938;28;20400;-75
2022/03/22 03:02:08;;;;;;;;;;;12.30;64.40;;;;;;5090343;28;19919;-75
2022/03/22 03:04:34;;;;;;;;;;;12.30;64.40;;;;;;5089036;28;20358;-75
2022/03/22 03:06:59;;;;;;;;;;;12.20;64.40;;;;;;5090443;28;19916;-75
2022/03/22 03:09:25;;;;;;;;;;;12.20;64.40;;;;;;5090459;28;19913;-75
2022/03/22 03:11:50;;;;;;;;;;;12.20;64.50;;;;;;5090137;28;20449;-75
2022/03/22 03:17:00;;;;;;;;;;;12.20;64.70;;;;;;5090354;28;19919;-75
2022/03/22 03:19:26;;;;;;;;;;;12.20;64.40;;;;;;5088647;28;20312;-75
2022/03/22 03:21:52;;;;;;;;;;;12.30;64.30;;;;;;5089969;28;20011;-75
2022/03/22 03:24:17;;;;;;;;;;;12.30;64.30;;;;;;5089434;28;19916;-75
2022/03/22 03:26:43;;;;;;;;;;;12.30;64.20;;;;;;5089446;28;20319;-75
2022/03/22 03:29:09;;;;;;;;;;;12.30;64.20;;;;;;5088548;28;19912;-75
2022/03/22 03:31:35;;;;;;;;;;;12.30;64.20;;;;;;5089792;28;19912;-75
2022/03/22 03:34:01;;;;;;;;;;;12.40;64.30;;;;;;5089845;28;19908;-75
2022/03/22 03:36:26;;;;;;;;;;;12.40;64.20;;;;;;5089790;28;19913;-75
2022/03/22 03:38:52;;;;;;;;;;;12.40;64.30;;;;;;5089373;28;19927;-75
2022/03/22 03:47:03;;;;;;;;;;;12.50;64.30;;;;;;5089825;28;19988;-75
2022/03/22 03:49:37;;;;;;;;;;;12.50;64.40;;;;;;5089789;28;19943;-75
2022/03/22 03:52:03;;;;;;;;;;;12.60;64.40;;;;;;5089329;28;19914;-75
2022/03/22 03:54:29;;;;;;;;;;;12.50;64.20;;;;;;5087920;28;19999;-76
2022/03/22 03:56:55;;;;;;;;;;;12.40;64.20;;;;;;5089359;28;20023;-75
2022/03/22 03:59:20;;;;;;;;;;;12.30;64.20;;;;;;5089173;28;19965;-75
2022/03/22 04:01:46;;;;;;;;;;;12.30;64.20;;;;;;5089237;28;19912;-75
2022/03/22 04:04:12;;;;;;;;;;;12.30;64.20;;;;;;5087974;28;19916;-75
2022/03/22 04:06:37;;;;;;;;;;;12.10;64.10;;;;;;5089143;28;19919;-75
2022/03/22 04:09:03;;;;;;;;;;;12.00;64.20;;;;;;5089056;28;19963;-75
2022/03/22 04:11:29;;;;;;;;;;;11.90;64.30;;;;;;5087699;28;19950;-75
2022/03/22 04:13:54;;;;;;;;;;;11.90;64.50;;;;;;5087673;28;19912;-75
2022/03/22 04:16:20;;;;;;;;;;;11.90;64.50;;;;;;5088957;28;20357;-75
2022/03/22 04:18:46;;;;;;;;;;;11.90;64.40;;;;;;5088841;28;19919;-75
2022/03/22 04:21:11;;;;;;;;;;;11.90;64.30;;;;;;5088752;28;19923;-75
2022/03/22 04:23:37;;;;;;;;;;;11.90;64.30;;;;;;5088782;28;20344;-75
2022/03/22 04:26:02;;;;;;;;;;;11.90;64.20;;;;;;5088861;28;19999;-75
2022/03/22 04:33:57;;;;;;;;;;;11.90;64.30;;;;;;5087963;28;19966;-75
2022/03/22 04:36:22;;;;;;;;;;;11.80;64.10;;;;;;5088381;28;20366;-75
2022/03/22 04:38:48;;;;;;;;;;;11.80;64.10;;;;;;5087073;28;19924;-75
2022/03/22 04:41:14;;;;;;;;;;;11.70;64.10;;;;;;5088546;28;19909;-75
2022/03/22 04:43:39;;;;;;;;;;;11.60;64.20;;;;;;5070363;28;19920;-75
2022/03/22 04:46:06;;;;;;;;;;;11.60;64.20;;;;;;5088348;28;20290;-75
2022/03/22 04:48:32;;;;;;;;;;;11.50;64.20;;;;;;5088399;28;20362;-75
2022/03/22 04:56:45;;;;;;;;;;;11.40;64.50;;;;;;5087550;28;19919;-75
2022/03/22 04:59:11;;;;;;;;;;;11.30;64.40;;;;;;5088132;28;19922;-75
2022/03/22 05:01:37;;;;;;;;;;;11.30;64.40;;;;;;5088083;28;19916;-75
2022/03/22 05:04:03;;;;;;;;;;;11.30;64.30;;;;;;5088268;28;19912;-75
2022/03/22 05:06:28;;;;;;;;;;;11.30;64.30;;;;;;5088207;28;19922;-75
2022/03/22 05:08:54;;;;;;;;;;;11.20;64.30;;;;;;5086890;28;19958;-75
2022/03/22 05:11:20;;;;;;;;;;;11.20;64.40;;;;;;5088168;28;19936;-75
2022/03/22 05:13:46;;;;;;;;;;;11.20;64.40;;;;;;5086809;28;19908;-75
2022/03/22 05:16:11;;;;;;;;;;;11.20;64.40;;;;;;5088039;28;20366;-75
2022/03/22 05:18:37;;;;;;;;;;;11.20;64.40;;;;;;5086741;28;19919;-75
2022/03/22 05:21:04;;;;;;;;;;;11.20;64.60;;;;;;5088083;28;20479;-75
2022/03/22 05:23:30;;;;;;;;;;;11.20;64.60;;;;;;5088062;28;20021;-75
2022/03/22 05:25:56;;;;;;;;;;;11.20;64.60;;;;;;5086518;28;20008;-74
2022/03/22 05:28:21;;;;;;;;;;;11.40;64.60;;;;;;5087864;28;19974;-75
2022/03/22 05:30:47;;;;;;;;;;;11.40;64.40;;;;;;5087740;28;19920;-75
2022/03/22 05:33:13;;;;;;;;;;;11.50;64.40;;;;;;5088024;28;20269;-75
2022/03/22 05:35:39;;;;;;;;;;;11.50;64.30;;;;;;5087926;28;19936;-75
2022/03/22 05:38:05;;;;;;;;;;;11.50;64.30;;;;;;5087871;28;19913;-75
2022/03/22 05:40:30;;;;;;;;;;;11.50;64.30;;;;;;5087577;28;20344;-75
2022/03/22 05:42:56;;;;;;;;;;;11.50;64.30;;;;;;5087876;28;19908;-75
2022/03/22 05:45:23;;;;;;;;;;;11.50;64.30;;;;;;5087846;28;19912;-75
2022/03/22 05:47:49;;;;;;;;;;;11.50;64.20;;;;;;5088117;28;19909;-75
2022/03/22 05:50:15;;;;;;;;;;;11.50;64.20;;;;;;5090615;28;20263;-75
2022/03/22 05:52:43;;;;;;;;;;;11.50;64.20;;;;;;5091434;28;20210;-75
2022/03/22 05:55:09;;;;;;;;;;;11.50;64.10;;;;;;5092345;28;19943;-75
2022/03/22 05:57:34;;;;;;;;;;;11.50;64.00;;;;;;5090317;28;19954;-75
2022/03/22 06:00:00;;;;;;;;;;;11.40;63.90;;;;;;5091560;28;20007;-75
2022/03/22 06:02:26;;;;;;;;;;;11.30;64.00;;;;;;5090432;28;19912;-75
2022/03/22 06:04:51;;;;;;;;;;;11.30;64.00;;;;;;5091361;28;19951;-75
2022/03/22 06:07:20;;;;;;;;;;;11.20;64.10;;;;;;5091714;28;20354;-75
2022/03/22 06:09:47;;;;;;;;;;;11.10;64.20;;;;;;5091614;28;19987;-75
2022/03/22 06:12:15;;;;;;;;;;;11.00;64.30;;;;;;5091512;28;19912;-75
2022/03/22 06:14:41;;;;;;;;;;;10.90;64.40;;;;;;5091167;28;19912;-74
2022/03/22 06:17:07;;;;;;;;;;;10.80;64.40;;;;;;5091134;28;20322;-75
2022/03/22 06:19:32;;;;;;;;;;;10.80;64.40;;;;;;5091179;28;19999;-75
2022/03/22 06:21:58;;;;;;;;;;;10.70;64.40;;;;;;5091145;28;20255;-75
2022/03/22 06:24:24;;;;;;;;;;;10.60;64.80;;;;;;5090990;28;19916;-75
2022/03/22 06:26:49;;;;;;;;;;;10.60;64.40;;;;;;5090935;28;19939;-75
2022/03/22 06:29:15;;;;;;;;;;;10.50;64.40;;;;;;5090660;28;19961;-75
2022/03/22 06:31:41;;;;;;;;;;;10.50;64.40;;;;;;5090983;28;19912;-75
2022/03/22 06:34:06;;;;;;;;;;;10.40;64.40;;;;;;5091284;28;20003;-75
2022/03/22 06:36:32;;;;;;;;;;;10.40;64.40;;;;;;5090776;28;19915;-75
2022/03/22 06:38:57;;;;;;;;;;;10.40;64.50;;;;;;5090591;28;20026;-75
2022/03/22 06:41:23;;;;;;;;;;;10.40;64.50;;;;;;5090766;28;20355;-75
2022/03/22 06:43:48;;;;;;;;;;;10.40;64.40;;;;;;5090728;28;19912;-74
2022/03/22 06:46:14;;;;;;;;;;;10.40;64.40;;;;;;5090208;28;20360;-75
2022/03/22 06:48:40;;;;;;;;;;;10.40;64.40;;;;;;5089998;28;20344;-75
2022/03/22 06:51:05;;;;;;;;;;;10.40;64.40;;;;;;5090486;28;19999;-75
2022/03/22 06:53:31;;;;;;;;;;;10.50;64.50;;;;;;5090356;28;20405;-75
2022/03/22 06:55:57;;;;;;;;;;;10.60;64.50;;;;;;5090347;28;19958;-76
2022/03/22 06:58:24;;;;;;;;;;;10.70;64.50;;;;;;5090556;28;19916;-75
2022/03/22 07:00:51;;;;;;;;;;;10.70;64.50;;;;;;5087562;28;19934;-75
2022/03/22 07:03:17;;;;;;;;;;;10.80;64.40;;;;;;5090246;28;20366;-75
2022/03/22 07:05:46;;;;;;;;;;;10.80;64.50;;;;;;5090186;28;19920;-75
2022/03/22 07:08:12;;;;;;;;;;;10.90;64.50;;;;;;5090164;28;19926;-75
2022/03/22 07:10:38;;;;;;;;;;;11.00;64.50;;;;;;5088688;28;19927;-75
2022/03/22 07:13:05;;;;;;;;;;;11.00;64.50;;;;;;5088885;28;19912;-75
2022/03/22 07:15:35;;;;;;;;;;;11.10;64.40;;;;;;5089751;28;19938;-76
2022/03/22 07:18:02;;;;;;;;;;;11.20;64.40;;;;;;5089810;28;19908;-74
2022/03/22 07:20:28;;;;;;;;;;;11.20;64.50;;;;;;5088045;28;20374;-74
2022/03/22 07:22:54;;;;;;;;;;;11.20;64.50;;;;;;5089752;28;19923;-75
2022/03/22 07:25:19;;;;;;;;;;;11.30;64.50;;;;;;5089815;28;19912;-75
2022/03/22 07:27:45;;;;;;;;;;;11.30;64.50;;;;;;5089866;28;19908;-74
2022/03/22 07:30:11;;;;;;;;;;;11.30;64.50;;;;;;5089315;28;19927;-75
2022/03/22 07:32:38;;;;;;;;;;;11.40;64.70;;;;;;5089198;28;20349;-75
2022/03/22 07:35:03;;;;;;;;;;;11.50;64.80;;;;;;5089804;28;19989;-75
2022/03/22 07:37:29;;;;;;;;;;;11.60;64.80;;;;;;5089503;28;19958;-75
2022/03/22 07:39:56;;;;;;;;;;;11.70;64.80;;;;;;5089228;28;20050;-75
2022/03/22 07:42:24;;;;;;;;;;;11.70;64.80;;;;;;5089837;28;19912;-75
2022/03/22 07:44:49;;;;;;;;;;;11.90;64.90;;;;;;5089228;28;19912;-74
2022/03/22 07:47:15;;;;;;;;;;;12.10;65.10;;;;;;5088989;28;19916;-75
2022/03/22 07:55:10;;;;;;;;;;;13.20;65.00;;;;;;5089339;28;19977;-76
2022/03/22 07:57:35;;;;;;;;;;;13.70;65.20;;;;;;5088780;28;20394;-75
2022/03/22 08:00:01;;;;;;;;;;;14.10;65.10;;;;;;5087604;28;19915;-76
2022/03/22 08:02:27;;;;;;;;;;;14.60;64.90;;;;;;5088308;28;20459;-75
2022/03/22 08:04:53;;;;;;;;;;;14.90;64.70;;;;;;5088625;28;19950;-76
2022/03/22 08:07:18;;;;;;;;;;;15.20;64.70;;;;;;5088210;28;20278;-76
2022/03/22 08:09:45;;;;;;;;;;;15.70;64.70;;;;;;5087912;28;19925;-76
2022/03/22 08:12:12;;;;;;;;;;;16.10;64.70;;;;;;5088010;28;19912;-75
2022/03/22 08:14:38;;;;;;;;;;;16.10;64.30;;;;;;5088125;28;19916;-76
2022/03/22 08:17:04;;;;;;;;;;;16.10;64.50;;;;;;5086829;28;19912;-75
2022/03/22 08:19:29;;;;;;;;;;;16.10;64.60;;;;;;5087266;28;20401;-75
2022/03/22 08:21:55;;;;;;;;;;;16.10;65.00;;;;;;5088296;28;19966;-75
2022/03/22 08:24:22;;;;;;;;;;;16.30;65.60;;;;;;5087957;28;19908;-77
2022/03/22 08:26:48;;;;;;;;;;;16.80;66.20;;;;;;5087766;28;19924;-76
2022/03/22 08:29:14;;;;;;;;;;;17.30;65.60;;;;;;5086577;28;19948;-76
2022/03/22 08:31:40;;;;;;;;;;;17.20;65.10;;;;;;5086999;28;19931;-76
2022/03/22 08:34:06;;;;;;;;;;;17.20;65.10;;;;;;5086111;28;20355;-74
2022/03/22 08:36:33;;;;;;;;;;;17.20;64.90;;;;;;5087968;28;20015;-75
2022/03/22 08:38:59;;;;;;;;;;;17.10;65.30;;;;;;5086126;28;20322;-75
2022/03/22 08:41:25;;;;;;;;;;;17.60;66.60;;;;;;5087690;28;20198;-75
2022/03/22 08:43:52;;;;;;;;;;;18.60;67.20;;;;;;5085341;28;20054;-75
2022/03/22 08:46:20;;;;;;;;;;;19.00;65.70;;;;;;5086118;28;20333;-75
2022/03/22 08:48:47;;;;;;;;;;;18.80;65.00;;;;;;5086368;28;19912;-75
2022/03/22 08:51:13;;;;;;;;;;;18.50;65.10;;;;;;5087435;28;19912;-74
2022/03/22 08:53:39;;;;;;;;;;;18.20;65.20;;;;;;5087475;28;19915;-74
2022/03/22 08:56:04;;;;;;;;;;;18.00;65.30;;;;;;5087195;28;19908;-77
2022/03/22 08:58:30;;;;;;;;;;;17.80;65.50;;;;;;5086342;28;20391;-75
2022/03/22 09:00:56;;;;;;;;;;;17.80;65.80;;;;;;5087197;28;19924;-75
2022/03/22 09:03:22;;;;;;;;;;;17.90;65.90;;;;;;5086992;28;20290;-75
2022/03/22 09:08:33;;;;;;;;;;;18.30;65.30;;;;;;5087501;28;19966;-74
2022/03/22 09:10:58;;;;;;;;;;;18.40;64.80;;;;;;5087354;28;19908;-75
2022/03/22 09:13:24;;;;;;;;;;;18.50;64.70;;;;;;5087329;28;19912;-74
2022/03/22 09:15:51;;;;;;;;;;;18.70;64.70;;;;;;5086154;28;19951;-75
2022/03/22 09:18:17;;;;;;;;;;;19.00;65.30;;;;;;5087736;28;20394;-74
2022/03/22 09:20:44;;;;;;;;;;;19.80;66.40;;;;;;5087143;28;20407;-75
2022/03/22 09:23:11;;;;;;;;;;;21.10;67.30;;;;;;5087904;28;20002;-75
2022/03/22 09:25:37;;;;;;;;;;;22.80;67.20;;;;;;5090956;28;19917;-75
2022/03/22 09:28:05;;;;;;;;;;;24.30;66.20;;;;;;5090848;28;20252;-75
2022/03/22 09:30:31;;;;;;;;;;;25.40;65.80;;;;;;5091187;28;19908;-75
2022/03/22 09:32:57;;;;;;;;;;;26.30;65.30;;;;;;5091027;28;20124;-75
2022/03/22 09:35:23;;;;;;;;;;;26.80;64.80;;;;;;5090983;28;19920;-76
2022/03/22 09:37:49;;;;;;;;;;;27.00;65.00;;;;;;5090967;28;19912;-74
2022/03/22 09:40:17;;;;;;;;;;;27.60;65.20;;;;;;5089359;28;19925;-75
2022/03/22 09:42:43;;;;;;;;;;;28.30;64.00;;;;;;5091258;28;20045;-74
2022/03/22 09:45:09;;;;;;;;;;;28.80;63.60;;;;;;5091027;28;19954;-74
2022/03/22 09:47:35;;;;;;;;;;;29.20;62.60;;;;;;5090934;28;20385;-75
2022/03/22 09:50:02;;;;;;;;;;;29.30;61.00;;;;;;5089606;28;19957;-75
2022/03/22 09:52:28;;;;;;;;;;;29.20;59.90;;;;;;5090870;28;19920;-74
2022/03/22 09:54:53;;;;;;;;;;;28.90;59.90;;;;;;5090478;28;19966;-74
2022/03/22 09:57:19;;;;;;;;;;;28.40;59.40;;;;;;5072232;28;19966;-75
2022/03/22 09:59:44;;;;;;;;;;;27.50;59.00;;;;;;5090613;28;20007;-74
2022/03/22 10:02:10;;;;;;;;;;;27.20;60.20;;;;;;5089555;28;20006;-74
2022/03/22 10:04:40;;;;;;;;;;;27.50;60.20;;;;;;5070166;28;20571;-73
2022/03/22 10:07:06;;;;;;;;;;;28.20;59.60;;;;;;5070472;28;19986;-73
2022/03/22 10:09:33;;;;;;;;;;;28.90;60.00;;;;;;5071030;28;20003;-74
2022/03/22 10:11:58;;;;;;;;;;;29.40;59.80;;;;;;5071089;28;19918;-74
2022/03/22 10:14:34;;;;;;;;;;;29.70;59.30;;;;;;5070110;28;19978;-74
2022/03/22 10:17:07;;;;;;;;;;;29.90;59.80;;;;;;5074795;28;19977;-74
2022/03/22 10:19:33;;;;;;;;;;;30.10;58.70;;;;;;5087650;28;19956;-74
2022/03/22 10:22:04;;;;;;;;;;;30.00;58.60;;;;;;5090281;28;19954;-74
2022/03/22 10:24:29;;;;;;;;;;;29.30;58.70;;;;;;5089898;28;19973;-74
2022/03/22 10:26:55;;;;;;;;;;;29.10;58.70;;;;;;5089904;28;19916;-74
2022/03/22 10:29:21;;;;;;;;;;;28.90;58.70;;;;;;5088562;28;19977;-75
2022/03/22 10:31:46;;;;;;;;;;;28.80;59.10;;;;;;5090288;28;19916;-74
2022/03/22 10:34:12;;;;;;;;;;;29.00;58.20;;;;;;5089772;28;20398;-74
2022/03/22 10:36:39;;;;;;;;;;;29.20;57.80;;;;;;5090610;28;20367;-74
2022/03/22 10:39:06;;;;;;;;;;;29.40;58.10;;;;;;5090180;28;19973;-74
2022/03/22 10:41:33;;;;;;;;;;;29.10;56.80;;;;;;5085197;28;20341;-74
2022/03/22 10:44:02;;;;;;;;;;;28.10;56.00;;;;;;5090191;28;19908;-74
2022/03/22 10:46:28;;;;;;;;;;;27.70;57.20;;;;;;5090110;28;19918;-74
2022/03/22 10:49:05;;;;;;;;;;;27.70;57.70;;;;;;5088666;28;19920;-73
2022/03/22 10:51:32;;;;;;;;;;;28.10;57.80;;;;;;5090874;28;19925;-73
2022/03/22 10:53:58;;;;;;;;;;;28.20;57.40;;;;;;5091073;28;19923;-73
2022/03/22 10:56:25;;;;;;;;;;;28.20;57.20;;;;;;5090645;28;19912;-73
2022/03/22 10:58:51;;;;;;;;;;;28.50;56.90;;;;;;5088925;28;20052;-73
2022/03/22 11:01:20;;;;;;;;;;;28.70;56.50;;;;;;5090281;28;19908;-73
2022/03/22 11:03:48;;;;;;;;;;;28.80;57.30;;;;;;5088345;28;20326;-75
2022/03/22 11:06:14;;;;;;;;;;;29.00;57.30;;;;;;5089974;28;19910;-75
2022/03/22 11:08:41;;;;;;;;;;;29.10;57.30;;;;;;5088643;28;19916;-74
2022/03/22 11:11:07;;;;;;;;;;;29.30;57.50;;;;;;5090028;28;19973;-76
2022/03/22 11:13:33;;;;;;;;;;;29.50;56.70;;;;;;5089565;28;19920;-76
2022/03/22 11:15:59;;;;;;;;;;;29.40;56.50;;;;;;5089689;28;19916;-75
2022/03/22 11:18:27;;;;;;;;;;;29.30;56.70;;;;;;5088795;28;20389;-75
2022/03/22 11:20:58;;;;;;;;;;;29.20;56.60;;;;;;5089747;28;19919;-75
2022/03/22 11:23:25;;;;;;;;;;;28.80;56.30;;;;;;5088453;28;19931;-75
2022/03/22 11:25:51;;;;;;;;;;;28.70;55.80;;;;;;5088251;28;19909;-75
2022/03/22 11:28:19;;;;;;;;;;;28.50;56.20;;;;;;5089777;28;19916;-75
2022/03/22 11:30:45;;;;;;;;;;;28.40;56.70;;;;;;5088952;28;19955;-76
2022/03/22 11:36:00;;;;;;;;;;;27.90;56.70;;;;;;5088958;28;19948;-76
2022/03/22 11:38:35;;;;;;;;;;;27.80;57.20;;;;;;5088854;28;19916;-76
2022/03/22 11:43:48;;;;;;;;;;;28.00;57.60;;;;;;5088942;28;20358;-75
2022/03/22 11:46:14;;;;;;;;;;;28.30;57.60;;;;;;5088047;28;19955;-75
2022/03/22 11:48:39;;;;;;;;;;;28.60;57.70;;;;;;5089295;28;19908;-74
2022/03/22 11:51:09;;;;;;;;;;;28.80;56.80;;;;;;5087845;28;20281;-75
2022/03/22 11:53:44;;;;;;;;;;;29.20;56.80;;;;;;5087672;28;20333;-75
2022/03/22 11:56:11;;;;;;;;;;;29.50;55.20;;;;;;5089199;28;19947;-74
2022/03/22 11:58:37;;;;;;;;;;;29.70;55.70;;;;;;5087392;28;19929;-73
2022/03/22 12:01:03;;;;;;;;;;;29.70;55.70;;;;;;5088889;28;20368;-73
2022/03/22 12:03:33;;;;;;;;;;;29.90;55.90;;;;;;5088684;28;20431;-74
2022/03/22 12:06:11;;;;;;;;;;;30.10;55.90;;;;;;5082175;28;19912;-74
2022/03/22 12:08:37;;;;;;;;;;;30.30;55.40;;;;;;5088986;28;19908;-74
2022/03/22 12:11:03;;;;;;;;;;;30.20;55.60;;;;;;5088264;28;19912;-72
2022/03/22 12:13:30;;;;;;;;;;;30.10;55.60;;;;;;5088132;28;19908;-77
2022/03/22 12:16:00;;;;;;;;;;;29.80;55.10;;;;;;5088026;28;20637;-74
2022/03/22 12:18:29;;;;;;;;;;;29.20;55.00;;;;;;5088342;28;19947;-75
2022/03/22 12:20:56;;;;;;;;;;;28.10;54.40;;;;;;5088117;28;19973;-73
2022/03/22 12:23:22;;;;;;;;;;;27.00;54.90;;;;;;5088293;28;19946;-74
2022/03/22 12:25:47;;;;;;;;;;;26.40;55.80;;;;;;5088489;28;19947;-73
2022/03/22 12:28:13;;;;;;;;;;;26.40;56.70;;;;;;5088729;28;19916;-78
2022/03/22 12:30:41;;;;;;;;;;;26.70;56.40;;;;;;5088677;28;19912;-77
2022/03/22 12:33:11;;;;;;;;;;;26.90;56.00;;;;;;5086686;28;19915;-73
2022/03/22 12:35:37;;;;;;;;;;;26.90;55.80;;;;;;5088165;28;19919;-74
2022/03/22 12:38:03;;;;;;;;;;;27.00;55.90;;;;;;5088460;28;19933;-68
2022/03/22 12:40:29;;;;;;;;;;;27.10;55.70;;;;;;5088315;28;20018;-73
2022/03/22 12:42:55;;;;;;;;;;;27.10;55.50;;;;;;5088438;28;20058;-76
2022/03/22 12:45:22;;;;;;;;;;;27.10;55.50;;;;;;5088101;28;20377;-73
2022/03/22 12:47:50;;;;;;;;;;;27.30;55.40;;;;;;5088201;28;19941;-73
2022/03/22 12:50:18;;;;;;;;;;;27.10;54.60;;;;;;5087828;28;19938;-73
2022/03/22 12:52:44;;;;;;;;;;;26.10;54.00;;;;;;5087465;28;20638;-73
2022/03/22 12:55:11;;;;;;;;;;;25.30;54.40;;;;;;5086605;28;19909;-73
2022/03/22 12:57:40;;;;;;;;;;;25.00;54.90;;;;;;5085058;28;19969;-73
2022/03/22 13:00:07;;;;;;;;;;;25.10;54.90;;;;;;5088224;28;20281;-73
2022/03/22 13:02:35;;;;;;;;;;;25.30;55.40;;;;;;5088452;28;19912;-73
2022/03/22 13:05:01;;;;;;;;;;;25.30;54.60;;;;;;5087869;28;19908;-73
2022/03/22 13:07:27;;;;;;;;;;;24.80;54.20;;;;;;5088072;28;19943;-72
2022/03/22 13:12:46;;;;;;;;;;;24.10;54.90;;;;;;5085663;28;19935;-73
2022/03/22 13:15:13;;;;;;;;;;;24.10;55.20;;;;;;5087490;28;20520;-72
2022/03/22 13:17:43;;;;;;;;;;;24.20;55.30;;;;;;5087719;28;19924;-72
2022/03/22 13:20:21;;;;;;;;;;;23.80;54.90;;;;;;5086316;28;20289;-72
2022/03/22 13:23:09;;;;;;;;;;;23.40;54.70;;;;;;5087471;28;19908;-71
2022/03/22 13:25:42;;;;;;;;;;;23.00;54.60;;;;;;5084968;28;19915;-72
2022/03/22 13:28:15;;;;;;;;;;;22.60;55.30;;;;;;5085513;28;19939;-72
2022/03/22 13:30:44;;;;;;;;;;;22.30;54.90;;;;;;5087575;28;19912;-71
2022/03/22 13:33:11;;;;;;;;;;;22.00;54.90;;;;;;5087485;28;19912;-73
2022/03/22 13:35:37;;;;;;;;;;;21.80;54.90;;;;;;5087397;28;19978;-73
2022/03/22 13:38:07;;;;;;;;;;;21.70;54.90;;;;;;5086194;28;19920;-72
2022/03/22 13:40:37;;;;;;;;;;;21.50;54.90;;;;;;5086913;28;19928;-66
2022/03/22 13:43:06;;;;;;;;;;;21.50;55.10;;;;;;5087183;28;19920;-73
2022/03/22 13:45:33;;;;;;;;;;;21.50;55.00;;;;;;5086759;28;19913;-72
2022/03/22 13:47:58;;;;;;;;;;;21.40;54.90;;;;;;5087168;28;20018;-73
2022/03/22 13:50:26;;;;;;;;;;;21.40;54.90;;;;;;5087131;28;20603;-73
2022/03/22 13:53:06;;;;;;;;;;;21.30;55.00;;;;;;5087332;28;19961;-72
2022/03/22 13:55:33;;;;;;;;;;;21.30;55.10;;;;;;5086018;28;19923;-73
2022/03/22 13:58:00;;;;;;;;;;;21.30;55.50;;;;;;5087378;28;19948;-73
2022/03/22 14:00:26;;;;;;;;;;;21.30;55.00;;;;;;5083477;28;19990;-73
2022/03/22 14:02:52;;;;;;;;;;;21.30;55.00;;;;;;5085550;28;19934;-69
2022/03/22 14:05:17;;;;;;;;;;;21.20;54.90;;;;;;5086883;28;19916;-73
2022/03/22 14:07:50;;;;;;;;;;;21.20;55.00;;;;;;5085319;28;19929;-73
2022/03/22 14:10:15;;;;;;;;;;;21.10;54.90;;;;;;5088401;28;20270;-73
2022/03/22 14:12:41;;;;;;;;;;;20.90;54.90;;;;;;5090371;28;19912;-73
2022/03/22 14:15:07;;;;;;;;;;;20.80;55.20;;;;;;5090412;28;20453;-73
2022/03/22 14:17:32;;;;;;;;;;;20.70;55.40;;;;;;5090470;28;20471;-73
2022/03/22 14:19:59;;;;;;;;;;;20.70;55.40;;;;;;5090168;28;19912;-72
2022/03/22 14:22:25;;;;;;;;;;;20.70;55.40;;;;;;5090349;28;19908;-73
2022/03/22 14:24:50;;;;;;;;;;;20.60;55.40;;;;;;5089716;28;19915;-73
2022/03/22 14:27:19;;;;;;;;;;;20.60;55.40;;;;;;5089810;28;19980;-73
2022/03/22 14:29:45;;;;;;;;;;;20.50;55.30;;;;;;5088196;28;19961;-75
2022/03/22 14:32:11;;;;;;;;;;;20.40;55.40;;;;;;5090087;28;19950;-73
2022/03/22 14:37:20;;;;;;;;;;;20.30;55.40;;;;;;5086978;28;19973;-73
2022/03/22 14:39:48;;;;;;;;;;;20.30;55.70;;;;;;5090008;28;19924;-73
2022/03/22 14:42:13;;;;;;;;;;;20.20;55.80;;;;;;5090316;28;21165;-74
2022/03/22 14:44:43;;;;;;;;;;;20.20;55.80;;;;;;5090032;28;19912;-73
2022/03/22 14:47:11;;;;;;;;;;;20.30;55.80;;;;;;5088567;28;20258;-73
2022/03/22 14:49:37;;;;;;;;;;;20.30;55.70;;;;;;5090054;28;19923;-73
2022/03/22 14:54:47;;;;;;;;;;;20.20;55.50;;;;;;5089960;28;19972;-74
2022/03/22 14:59:57;;;;;;;;;;;20.10;55.50;;;;;;5089225;28;19927;-73
2022/03/22 15:02:26;;;;;;;;;;;20.00;55.40;;;;;;5090041;28;19996;-72
2022/03/22 15:04:51;;;;;;;;;;;19.80;55.40;;;;;;5088504;28;19939;-73